createdAt,value
2018-07-20T00:00:48.536Z,53.4
2018-07-20T00:01:39.159Z,53.4
2018-07-20T00:02:29.234Z,53.3
2018-07-20T00:03:19.003Z,53.3
2018-07-20T00:04:09.083Z,53.3
2018-07-20T00:04:59.412Z,53.3
2018-07-20T00:05:49.453Z,53.3
2018-07-20T00:06:39.544Z,53.3
2018-07-20T00:07:29.595Z,53.3
2018-07-20T00:08:19.421Z,53.3
2018-07-20T00:09:09.504Z,53.3
2018-07-20T00:09:59.515Z,53.3
2018-07-20T00:10:49.354Z,53.3
2018-07-20T00:11:39.902Z,53.2
2018-07-20T00:12:29.976Z,53.2
2018-07-20T00:13:19.301Z,53.2
2018-07-20T00:14:09.637Z,53.2
2018-07-20T00:14:59.438Z,53.2
2018-07-20T00:15:49.459Z,53.2
2018-07-20T00:16:40.036Z,53.1
2018-07-20T00:17:29.605Z,53.1
2018-07-20T00:18:19.947Z,53.1
2018-07-20T00:19:09.449Z,53.1
2018-07-20T00:20:00.277Z,53.1
2018-07-20T00:20:50.686Z,53.1
2018-07-20T00:21:39.943Z,53.1
2018-07-20T00:22:30.491Z,53.1
2018-07-20T00:23:20.520Z,53
2018-07-20T00:24:10.019Z,53
2018-07-20T00:25:00.693Z,53
2018-07-20T00:25:51.000Z,53
2018-07-20T00:26:41.074Z,53
2018-07-20T00:27:30.869Z,53
2018-07-20T00:28:20.942Z,52.9
2018-07-20T00:29:11.055Z,52.9
2018-07-20T00:30:01.054Z,52.9
2018-07-20T00:30:51.420Z,52.9
2018-07-20T00:31:40.609Z,52.9
2018-07-20T00:32:30.964Z,52.9
2018-07-20T00:33:21.014Z,52.9
2018-07-20T00:34:11.410Z,52.9
2018-07-20T00:35:01.441Z,52.9
2018-07-20T00:35:51.796Z,52.9
2018-07-20T00:36:41.311Z,52.8
2018-07-20T00:37:31.654Z,52.8
2018-07-20T00:38:22.005Z,52.8
2018-07-20T00:39:12.029Z,52.8
2018-07-20T00:40:01.828Z,52.8
2018-07-20T00:40:51.599Z,52.8
2018-07-20T00:41:41.653Z,52.8
2018-07-20T00:42:31.531Z,52.8
2018-07-20T00:43:21.581Z,52.8
2018-07-20T00:44:11.386Z,52.8
2018-07-20T00:45:01.717Z,52.7
2018-07-20T00:45:51.779Z,52.7
2018-07-20T00:46:42.119Z,52.7
2018-07-20T00:47:31.872Z,52.7
2018-07-20T00:48:21.681Z,52.7
2018-07-20T00:49:12.785Z,52.6
2018-07-20T00:50:02.854Z,52.6
2018-07-20T00:50:52.894Z,52.6
2018-07-20T00:51:42.695Z,52.6
2018-07-20T00:52:32.748Z,52.6
2018-07-20T00:53:22.847Z,52.6
2018-07-20T00:54:12.882Z,52.6
2018-07-20T00:55:02.662Z,52.6
2018-07-20T00:55:53.026Z,52.6
2018-07-20T00:56:43.353Z,52.5
2018-07-20T00:57:32.604Z,52.6
2018-07-20T00:58:22.960Z,52.5
2018-07-20T00:59:13.548Z,52.5
2018-07-20T01:00:02.800Z,52.5
2018-07-20T01:00:53.411Z,52.4
2018-07-20T01:01:42.966Z,52.4
2018-07-20T01:02:33.568Z,52.4
2018-07-20T01:03:22.834Z,52.4
2018-07-20T01:04:13.466Z,52.4
2018-07-20T01:05:03.575Z,52.4
2018-07-20T01:10:03.833Z,52.3
2018-07-20T01:11:44.017Z,52.3
2018-07-20T01:12:34.569Z,52.3
2018-07-20T01:13:23.609Z,52.3
2018-07-20T01:14:13.914Z,52.3
2018-07-20T01:15:04.774Z,52.3
2018-07-20T01:15:54.372Z,52.3
2018-07-20T01:16:44.405Z,52.3
2018-07-20T01:17:34.189Z,52.3
2018-07-20T01:18:24.531Z,52.3
2018-07-20T01:19:14.319Z,52.2
2018-07-20T01:20:04.684Z,52.2
2018-07-20T01:20:54.714Z,52.2
2018-07-20T01:21:44.761Z,52.2
2018-07-20T01:22:35.049Z,52.2
2018-07-20T01:23:25.420Z,52.2
2018-07-20T01:24:15.201Z,52.2
2018-07-20T01:25:05.224Z,52.1
2018-07-20T01:25:55.303Z,52.1
2018-07-20T01:26:45.405Z,52.1
2018-07-20T01:27:35.412Z,52.1
2018-07-20T01:28:25.762Z,52.1
2018-07-20T01:29:15.261Z,52.1
2018-07-20T01:30:05.996Z,52.1
2018-07-20T01:30:55.942Z,52.1
2018-07-20T01:31:45.988Z,52
2018-07-20T01:32:36.098Z,52
2018-07-20T01:33:26.139Z,52
2018-07-20T01:34:15.640Z,52
2018-07-20T01:35:06.298Z,52
2018-07-20T01:35:55.791Z,52
2018-07-20T01:40:56.440Z,51.9
2018-07-20T01:41:46.814Z,51.9
2018-07-20T01:42:36.859Z,51.9
2018-07-20T01:43:26.336Z,51.9
2018-07-20T01:44:15.850Z,51.9
2018-07-20T01:45:06.757Z,51.9
2018-07-20T01:45:57.191Z,51.8
2018-07-20T01:46:46.892Z,51.8
2018-07-20T01:47:36.970Z,51.8
2018-07-20T01:48:26.753Z,51.8
2018-07-20T01:49:17.078Z,51.8
2018-07-20T01:50:07.408Z,51.8
2018-07-20T01:50:57.223Z,51.8
2018-07-20T01:51:47.537Z,51.8
2018-07-20T01:52:37.323Z,51.8
2018-07-20T01:53:27.121Z,51.8
2018-07-20T01:54:17.753Z,51.8
2018-07-20T01:55:07.527Z,51.7
2018-07-20T01:55:57.299Z,51.7
2018-07-20T01:56:47.928Z,51.7
2018-07-20T01:57:37.437Z,51.7
2018-07-20T01:58:28.069Z,51.7
2018-07-20T01:59:18.091Z,51.7
2018-07-20T02:00:07.422Z,51.7
2018-07-20T02:00:56.938Z,51.6
2018-07-20T02:01:48.028Z,51.6
2018-07-20T02:02:38.352Z,51.6
2018-07-20T02:03:27.667Z,51.6
2018-07-20T02:04:18.031Z,51.6
2018-07-20T02:05:08.130Z,51.6
2018-07-20T02:05:58.100Z,51.6
2018-07-20T02:06:48.455Z,51.6
2018-07-20T02:07:38.751Z,51.6
2018-07-20T02:08:28.335Z,51.6
2018-07-20T02:09:18.115Z,51.6
2018-07-20T02:10:08.677Z,51.5
2018-07-20T02:10:58.552Z,51.5
2018-07-20T02:11:48.336Z,51.5
2018-07-20T02:12:38.650Z,51.5
2018-07-20T02:13:28.457Z,51.4
2018-07-20T02:14:18.794Z,51.4
2018-07-20T02:15:08.870Z,51.4
2018-07-20T02:15:58.930Z,51.4
2018-07-20T02:16:48.440Z,51.4
2018-07-20T02:17:38.472Z,51.4
2018-07-20T02:18:29.160Z,51.4
2018-07-20T02:19:19.106Z,51.4
2018-07-20T02:20:09.742Z,51.4
2018-07-20T02:20:59.794Z,51.4
2018-07-20T02:21:49.582Z,51.4
2018-07-20T02:22:39.377Z,51.4
2018-07-20T02:23:29.997Z,51.3
2018-07-20T02:24:19.742Z,51.3
2018-07-20T02:25:09.853Z,51.3
2018-07-20T02:26:00.164Z,51.3
2018-07-20T02:26:50.264Z,51.3
2018-07-20T02:27:40.001Z,51.3
2018-07-20T02:28:30.046Z,51.3
2018-07-20T02:29:20.178Z,51.3
2018-07-20T02:30:10.502Z,51.3
2018-07-20T02:31:00.593Z,51.3
2018-07-20T02:31:50.037Z,51.3
2018-07-20T02:32:40.427Z,51.2
2018-07-20T02:33:29.914Z,51.2
2018-07-20T02:34:20.235Z,51.2
2018-07-20T02:35:10.302Z,51.2
2018-07-20T02:36:00.654Z,51.2
2018-07-20T02:36:50.702Z,51.1
2018-07-20T02:37:40.477Z,51.1
2018-07-20T02:38:31.095Z,51.1
2018-07-20T02:39:21.215Z,51.1
2018-07-20T02:40:11.257Z,51.1
2018-07-20T02:41:00.746Z,51.1
2018-07-20T02:41:50.594Z,51.1
2018-07-20T02:42:40.704Z,51.1
2018-07-20T02:43:30.722Z,51.1
2018-07-20T02:44:21.097Z,51.1
2018-07-20T02:45:10.915Z,51.1
2018-07-20T02:46:01.228Z,51.1
2018-07-20T02:46:50.987Z,51.1
2018-07-20T02:47:40.792Z,51
2018-07-20T02:48:30.842Z,51
2018-07-20T02:49:21.200Z,51
2018-07-20T02:50:11.542Z,51
2018-07-20T02:51:01.785Z,50.9
2018-07-20T02:51:51.593Z,50.9
2018-07-20T02:52:41.932Z,50.9
2018-07-20T02:53:31.965Z,50.9
2018-07-20T02:54:22.338Z,50.9
2018-07-20T02:55:12.140Z,50.9
2018-07-20T02:56:01.899Z,50.9
2018-07-20T02:56:51.768Z,50.9
2018-07-20T02:57:42.335Z,50.9
2018-07-20T02:58:31.890Z,50.9
2018-07-20T02:59:21.975Z,50.9
2018-07-20T03:00:12.328Z,50.9
2018-07-20T03:01:02.354Z,50.8
2018-07-20T03:01:51.900Z,50.8
2018-07-20T03:02:42.498Z,50.8
2018-07-20T03:03:31.729Z,50.8
2018-07-20T03:04:22.335Z,50.8
2018-07-20T03:05:12.394Z,50.8
2018-07-20T03:06:02.736Z,50.8
2018-07-20T03:06:52.228Z,50.8
2018-07-20T03:07:42.305Z,50.8
2018-07-20T03:08:33.398Z,50.8
2018-07-20T03:09:22.440Z,50.8
2018-07-20T03:10:12.983Z,50.7
2018-07-20T03:11:03.319Z,50.8
2018-07-20T03:11:52.615Z,50.7
2018-07-20T03:12:43.707Z,50.7
2018-07-20T03:13:33.793Z,50.7
2018-07-20T03:14:23.612Z,50.7
2018-07-20T03:15:13.466Z,50.7
2018-07-20T03:16:03.429Z,50.6
2018-07-20T03:16:54.051Z,50.6
2018-07-20T03:17:44.130Z,50.6
2018-07-20T03:18:33.879Z,50.6
2018-07-20T03:19:24.236Z,50.6
2018-07-20T03:20:14.008Z,50.6
2018-07-20T03:21:05.193Z,50.6
2018-07-20T03:21:54.152Z,50.6
2018-07-20T03:22:43.654Z,50.6
2018-07-20T03:23:34.568Z,50.6
2018-07-20T03:24:24.632Z,50.6
2018-07-20T03:25:14.877Z,50.6
2018-07-20T03:26:04.301Z,50.5
2018-07-20T03:26:53.471Z,50.5
2018-07-20T03:27:44.388Z,50.4
2018-07-20T03:28:34.166Z,50.4
2018-07-20T03:29:24.764Z,50.4
2018-07-20T03:30:14.525Z,50.3
2018-07-20T03:31:04.578Z,50.3
2018-07-20T03:31:55.202Z,50.3
2018-07-20T03:32:45.521Z,50.2
2018-07-20T03:33:34.823Z,50.2
2018-07-20T03:34:24.839Z,50.2
2018-07-20T03:35:15.460Z,50.3
2018-07-20T03:36:05.487Z,50.2
2018-07-20T03:36:54.475Z,50.1
2018-07-20T03:37:45.176Z,50.1
2018-07-20T03:38:35.185Z,50.1
2018-07-20T03:39:25.447Z,50.1
2018-07-20T03:40:15.265Z,50.1
2018-07-20T03:41:05.343Z,50.1
2018-07-20T03:41:55.184Z,50.1
2018-07-20T03:42:45.256Z,50.1
2018-07-20T03:43:35.578Z,50.1
2018-07-20T03:44:25.339Z,50.1
2018-07-20T03:45:15.715Z,50.1
2018-07-20T03:46:05.509Z,50.1
2018-07-20T03:46:55.862Z,50
2018-07-20T03:47:45.646Z,50
2018-07-20T03:48:36.195Z,50
2018-07-20T03:49:24.892Z,50
2018-07-20T03:50:16.300Z,50
2018-07-20T03:51:06.346Z,50
2018-07-20T03:51:56.719Z,50
2018-07-20T03:52:46.222Z,49.9
2018-07-20T03:53:36.569Z,50
2018-07-20T03:54:26.989Z,49.9
2018-07-20T03:55:17.026Z,49.9
2018-07-20T03:56:07.062Z,49.9
2018-07-20T03:56:56.797Z,49.9
2018-07-20T03:57:47.148Z,49.9
2018-07-20T03:58:36.939Z,49.9
2018-07-20T03:59:27.284Z,49.9
2018-07-20T04:00:17.349Z,49.9
2018-07-20T04:01:07.083Z,49.9
2018-07-20T04:01:57.623Z,49.9
2018-07-20T04:02:46.964Z,49.8
2018-07-20T04:03:37.586Z,49.8
2018-07-20T04:04:27.627Z,49.8
2018-07-20T04:05:17.718Z,49.8
2018-07-20T04:06:07.821Z,49.8
2018-07-20T04:06:57.577Z,49.8
2018-07-20T04:07:47.960Z,49.8
2018-07-20T04:08:38.015Z,49.8
2018-07-20T04:09:27.768Z,49.8
2018-07-20T04:10:18.137Z,49.8
2018-07-20T04:11:08.175Z,49.8
2018-07-20T04:11:58.215Z,49.8
2018-07-20T04:12:48.277Z,49.7
2018-07-20T04:13:38.309Z,49.7
2018-07-20T04:14:28.411Z,49.8
2018-07-20T04:15:18.447Z,49.7
2018-07-20T04:16:08.577Z,49.7
2018-07-20T04:16:58.574Z,49.7
2018-07-20T04:17:48.132Z,49.6
2018-07-20T04:18:38.464Z,49.7
2018-07-20T04:19:28.809Z,49.6
2018-07-20T04:20:18.845Z,49.6
2018-07-20T04:21:08.979Z,49.6
2018-07-20T04:21:58.464Z,49.6
2018-07-20T04:22:48.786Z,49.6
2018-07-20T04:23:38.846Z,49.6
2018-07-20T04:24:29.176Z,49.6
2018-07-20T04:25:19.261Z,49.6
2018-07-20T04:26:08.564Z,49.6
2018-07-20T04:26:58.815Z,49.6
2018-07-20T04:27:48.876Z,49.6
2018-07-20T04:28:38.931Z,49.5
2018-07-20T04:29:29.321Z,49.5
2018-07-20T04:30:19.311Z,49.5
2018-07-20T04:31:09.759Z,49.5
2018-07-20T04:31:59.171Z,49.5
2018-07-20T04:32:49.824Z,49.5
2018-07-20T04:33:39.865Z,49.5
2018-07-20T04:34:29.437Z,49.4
2018-07-20T04:35:20.027Z,49.4
2018-07-20T04:36:09.772Z,49.4
2018-07-20T04:37:00.128Z,49.4
2018-07-20T04:37:50.173Z,49.4
2018-07-20T04:38:39.950Z,49.4
2018-07-20T04:39:30.032Z,49.4
2018-07-20T04:40:20.072Z,49.4
2018-07-20T04:41:09.603Z,49.4
2018-07-20T04:42:00.480Z,49.4
2018-07-20T04:42:50.540Z,49.4
2018-07-20T04:43:40.627Z,49.3
2018-07-20T04:44:30.670Z,49.3
2018-07-20T04:45:20.484Z,49.3
2018-07-20T04:46:10.811Z,49.3
2018-07-20T04:47:00.860Z,49.3
2018-07-20T04:47:50.946Z,49.3
2018-07-20T04:48:41.017Z,49.3
2018-07-20T04:49:30.801Z,49.3
2018-07-20T04:50:21.124Z,49.3
2018-07-20T04:51:10.933Z,49.3
2018-07-20T04:52:00.148Z,49.3
2018-07-20T04:52:51.333Z,49.3
2018-07-20T04:53:41.126Z,49.3
2018-07-20T04:54:31.476Z,49.3
2018-07-20T04:55:20.685Z,49.2
2018-07-20T04:56:11.347Z,49.2
2018-07-20T04:57:00.039Z,49.2
2018-07-20T04:57:51.142Z,49.1
2018-07-20T04:58:41.003Z,49.1
2018-07-20T04:59:31.848Z,48.9
2018-07-20T05:00:21.650Z,49
2018-07-20T05:01:12.014Z,48.9
2018-07-20T05:02:01.769Z,48.9
2018-07-20T05:02:51.526Z,48.8
2018-07-20T05:03:42.134Z,48.8
2018-07-20T05:04:32.227Z,48.8
2018-07-20T05:05:21.744Z,48.8
2018-07-20T05:06:12.395Z,48.7
2018-07-20T05:07:02.476Z,48.6
2018-07-20T05:07:52.198Z,48.7
2018-07-20T05:08:42.683Z,48.7
2018-07-20T05:09:32.598Z,48.6
2018-07-20T05:10:22.391Z,48.6
2018-07-20T05:11:12.713Z,48.6
2018-07-20T05:12:02.787Z,48.6
2018-07-20T05:12:52.847Z,48.6
2018-07-20T05:13:42.938Z,48.6
2018-07-20T05:14:32.971Z,48.6
2018-07-20T05:15:22.752Z,48.6
2018-07-20T05:16:13.089Z,48.5
2018-07-20T05:17:03.165Z,48.6
2018-07-20T05:17:53.231Z,48.6
2018-07-20T05:18:42.745Z,48.5
2018-07-20T05:19:32.588Z,48.5
2018-07-20T05:20:22.701Z,48.5
2018-07-20T05:21:13.513Z,48.5
2018-07-20T05:22:03.236Z,48.5
2018-07-20T05:22:53.312Z,48.4
2018-07-20T05:23:43.408Z,48.4
2018-07-20T05:24:33.729Z,48.4
2018-07-20T05:25:23.537Z,48.4
2018-07-20T05:26:13.587Z,48.4
2018-07-20T05:27:03.939Z,48.4
2018-07-20T05:27:54.021Z,48.4
2018-07-20T05:28:43.784Z,48.4
2018-07-20T05:29:34.137Z,48.4
2018-07-20T05:30:23.599Z,48.4
2018-07-20T05:31:14.229Z,48.4
2018-07-20T05:32:04.058Z,48.4
2018-07-20T05:32:54.166Z,48.4
2018-07-20T05:33:44.413Z,48.4
2018-07-20T05:34:34.021Z,48.3
2018-07-20T05:35:23.999Z,48.3
2018-07-20T05:36:14.066Z,48.3
2018-07-20T05:37:04.674Z,48.3
2018-07-20T05:37:54.460Z,48.3
2018-07-20T05:38:44.796Z,48.3
2018-07-20T05:39:34.880Z,48.3
2018-07-20T05:40:24.980Z,48.3
2018-07-20T05:41:14.714Z,48.3
2018-07-20T05:42:04.805Z,48.3
2018-07-20T05:42:55.135Z,48.3
2018-07-20T05:43:44.375Z,48.3
2018-07-20T05:44:34.711Z,48.3
2018-07-20T05:45:24.801Z,48.2
2018-07-20T05:46:14.669Z,48.2
2018-07-20T05:47:05.438Z,48.2
2018-07-20T05:47:54.936Z,48.2
2018-07-20T05:48:45.348Z,48.1
2018-07-20T05:49:35.650Z,48.1
2018-07-20T05:50:24.900Z,48.1
2018-07-20T05:51:15.483Z,48.1
2018-07-20T05:52:05.856Z,48.1
2018-07-20T05:52:55.643Z,48.1
2018-07-20T05:53:45.395Z,48.1
2018-07-20T05:54:36.000Z,48.1
2018-07-20T05:55:26.072Z,48.1
2018-07-20T05:56:15.582Z,48.1
2018-07-20T05:57:06.181Z,48.1
2018-07-20T05:57:55.986Z,48.1
2018-07-20T05:58:46.331Z,48.1
2018-07-20T05:59:36.114Z,48.1
2018-07-20T06:00:26.185Z,48
2018-07-20T06:01:16.276Z,48
2018-07-20T06:02:06.570Z,48
2018-07-20T06:02:56.405Z,48
2018-07-20T06:03:46.447Z,48
2018-07-20T06:04:36.520Z,48
2018-07-20T06:05:27.132Z,48
2018-07-20T06:06:16.643Z,48
2018-07-20T06:07:06.725Z,47.9
2018-07-20T06:07:56.819Z,47.9
2018-07-20T06:08:46.628Z,47.9
2018-07-20T06:09:36.624Z,47.9
2018-07-20T06:10:26.987Z,47.9
2018-07-20T06:11:16.551Z,47.9
2018-07-20T06:12:07.374Z,47.9
2018-07-20T06:12:57.401Z,47.9
2018-07-20T06:13:47.227Z,47.9
2018-07-20T06:14:37.278Z,47.9
2018-07-20T06:15:27.340Z,47.9
2018-07-20T06:16:17.678Z,47.9
2018-07-20T06:17:07.492Z,47.9
2018-07-20T06:17:57.545Z,47.8
2018-07-20T06:18:47.602Z,47.8
2018-07-20T06:19:37.634Z,47.8
2018-07-20T06:20:28.048Z,47.8
2018-07-20T06:21:18.054Z,47.8
2018-07-20T06:22:07.935Z,47.8
2018-07-20T06:22:57.938Z,47.8
2018-07-20T06:23:48.208Z,47.8
2018-07-20T06:24:38.311Z,47.8
2018-07-20T06:25:28.356Z,47.8
2018-07-20T06:26:17.908Z,47.8
2018-07-20T06:27:08.509Z,47.8
2018-07-20T06:27:58.559Z,47.7
2018-07-20T06:28:48.084Z,47.7
2018-07-20T06:29:39.261Z,47.7
2018-07-20T06:30:28.791Z,47.7
2018-07-20T06:31:18.808Z,47.7
2018-07-20T06:32:08.890Z,47.7
2018-07-20T06:32:58.728Z,47.6
2018-07-20T06:33:48.732Z,47.7
2018-07-20T06:34:39.070Z,47.7
2018-07-20T06:35:28.836Z,47.6
2018-07-20T06:36:18.931Z,47.6
2018-07-20T06:37:08.997Z,47.6
2018-07-20T06:37:58.242Z,47.6
2018-07-20T06:38:49.120Z,47.6
2018-07-20T06:39:39.462Z,47.6
2018-07-20T06:40:29.517Z,47.6
2018-07-20T06:41:19.303Z,47.6
2018-07-20T06:42:09.128Z,47.6
2018-07-20T06:42:59.722Z,47.6
2018-07-20T06:43:49.822Z,47.5
2018-07-20T06:44:39.905Z,47.5
2018-07-20T06:45:29.912Z,47.5
2018-07-20T06:46:19.704Z,47.5
2018-07-20T06:47:09.754Z,47.5
2018-07-20T06:47:59.544Z,47.5
2018-07-20T06:48:49.609Z,47.5
2018-07-20T06:49:39.978Z,47.5
2018-07-20T06:50:30.012Z,47.5
2018-07-20T06:51:20.135Z,47.5
2018-07-20T06:52:10.421Z,47.4
2018-07-20T06:53:00.502Z,47.4
2018-07-20T06:53:50.574Z,47.4
2018-07-20T06:54:40.344Z,47.4
2018-07-20T06:55:30.399Z,47.4
2018-07-20T06:56:20.196Z,47.4
2018-07-20T06:57:10.564Z,47.4
2018-07-20T06:58:00.856Z,47.4
2018-07-20T06:58:50.996Z,47.4
2018-07-20T06:59:40.415Z,47.4
2018-07-20T07:00:30.204Z,47.4
2018-07-20T07:01:21.126Z,47.4
2018-07-20T07:02:10.923Z,47.4
2018-07-20T07:03:00.978Z,47.3
2018-07-20T07:03:51.316Z,47.3
2018-07-20T07:04:41.353Z,47.3
2018-07-20T07:05:30.855Z,47.3
2018-07-20T07:06:21.550Z,47.3
2018-07-20T07:07:11.011Z,47.3
2018-07-20T07:08:01.393Z,47.3
2018-07-20T07:08:51.160Z,47.3
2018-07-20T07:09:41.765Z,47.3
2018-07-20T07:10:31.820Z,47.3
2018-07-20T07:11:20.863Z,47.3
2018-07-20T07:12:11.387Z,47.3
2018-07-20T07:13:01.487Z,47.3
2018-07-20T07:13:51.810Z,47.3
2018-07-20T07:14:41.602Z,47.2
2018-07-20T07:15:32.238Z,47.2
2018-07-20T07:16:21.828Z,47.2
2018-07-20T07:17:12.370Z,47.2
2018-07-20T07:18:02.132Z,47.2
2018-07-20T07:18:52.536Z,47.2
2018-07-20T07:19:42.265Z,47.1
2018-07-20T07:20:32.594Z,47.1
2018-07-20T07:21:22.412Z,47.1
2018-07-20T07:22:12.889Z,47.1
2018-07-20T07:23:02.494Z,47.1
2018-07-20T07:23:52.882Z,47.1
2018-07-20T07:24:42.629Z,47.1
2018-07-20T07:25:32.679Z,47.1
2018-07-20T07:26:22.769Z,47.1
2018-07-20T07:27:12.829Z,47.1
2018-07-20T07:28:02.897Z,47.1
2018-07-20T07:28:52.961Z,47.1
2018-07-20T07:29:43.324Z,47
2018-07-20T07:30:32.791Z,47
2018-07-20T07:31:23.149Z,47
2018-07-20T07:32:13.502Z,47
2018-07-20T07:33:03.564Z,47
2018-07-20T07:33:53.591Z,47
2018-07-20T07:34:43.404Z,47
2018-07-20T07:35:33.463Z,47
2018-07-20T07:36:23.786Z,47
2018-07-20T07:37:13.862Z,46.9
2018-07-20T07:38:03.352Z,46.9
2018-07-20T07:38:53.735Z,46.9
2018-07-20T07:39:43.774Z,46.9
2018-07-20T07:40:33.845Z,46.9
2018-07-20T07:41:23.653Z,46.9
2018-07-20T07:42:14.857Z,46.9
2018-07-20T07:43:04.016Z,46.9
2018-07-20T07:43:54.117Z,46.9
2018-07-20T07:44:44.161Z,46.9
2018-07-20T07:45:34.189Z,46.9
2018-07-20T07:46:24.025Z,46.9
2018-07-20T07:47:14.627Z,46.9
2018-07-20T07:48:04.420Z,46.8
2018-07-20T07:48:54.699Z,46.9
2018-07-20T07:49:44.822Z,46.8
2018-07-20T07:50:34.582Z,46.8
2018-07-20T07:51:24.727Z,46.8
2018-07-20T07:52:14.987Z,46.8
2018-07-20T07:53:04.528Z,46.8
2018-07-20T07:53:54.871Z,46.8
2018-07-20T07:54:44.803Z,46.8
2018-07-20T07:55:35.307Z,46.8
2018-07-20T07:56:24.768Z,46.8
2018-07-20T07:57:15.440Z,46.8
2018-07-20T07:58:05.414Z,46.8
2018-07-20T07:58:55.314Z,46.8
2018-07-20T07:59:45.571Z,46.7
2018-07-20T08:00:35.659Z,46.7
2018-07-20T08:01:25.399Z,46.7
2018-07-20T08:02:15.769Z,46.7
2018-07-20T08:03:05.873Z,46.7
2018-07-20T08:03:55.599Z,46.7
2018-07-20T08:04:45.677Z,46.7
2018-07-20T08:05:36.007Z,46.6
2018-07-20T08:06:26.082Z,46.6
2018-07-20T08:07:16.127Z,46.6
2018-07-20T08:08:05.690Z,46.6
2018-07-20T08:08:56.100Z,46.6
2018-07-20T08:09:46.683Z,46.6
2018-07-20T08:10:36.116Z,46.6
2018-07-20T08:11:26.580Z,46.6
2018-07-20T08:12:15.974Z,46.6
2018-07-20T08:13:06.305Z,46.6
2018-07-20T08:13:56.162Z,46.6
2018-07-20T08:14:46.710Z,46.6
2018-07-20T08:15:36.225Z,46.6
2018-07-20T08:16:26.611Z,46.6
2018-07-20T08:17:16.968Z,46.6
2018-07-20T08:18:06.701Z,46.6
2018-07-20T08:18:56.780Z,46.5
2018-07-20T08:19:47.133Z,46.5
2018-07-20T08:20:36.924Z,46.5
2018-07-20T08:21:26.490Z,46.5
2018-07-20T08:22:17.313Z,46.5
2018-07-20T08:23:07.200Z,46.5
2018-07-20T08:23:57.416Z,46.5
2018-07-20T08:24:47.213Z,46.5
2018-07-20T08:25:37.521Z,46.4
2018-07-20T08:26:27.652Z,46.4
2018-07-20T08:27:17.653Z,46.4
2018-07-20T08:28:07.817Z,46.4
2018-07-20T08:28:57.747Z,46.4
2018-07-20T08:29:47.857Z,46.4
2018-07-20T08:30:37.930Z,46.4
2018-07-20T08:31:27.705Z,46.4
2018-07-20T08:32:18.033Z,46.4
2018-07-20T08:33:07.675Z,46.4
2018-07-20T08:33:58.160Z,46.4
2018-07-20T08:34:47.700Z,46.4
2018-07-20T08:35:38.066Z,46.4
2018-07-20T08:36:27.820Z,46.3
2018-07-20T08:37:18.116Z,46.3
2018-07-20T08:38:08.234Z,46.3
2018-07-20T08:38:58.128Z,46.3
2018-07-20T08:39:48.335Z,46.3
2018-07-20T08:40:38.751Z,46.3
2018-07-20T08:41:28.471Z,46.3
2018-07-20T08:42:18.561Z,46.3
2018-07-20T08:43:08.879Z,46.3
2018-07-20T08:43:58.646Z,46.3
2018-07-20T08:44:49.016Z,46.3
2018-07-20T08:45:39.073Z,46.3
2018-07-20T08:46:28.896Z,46.3
2018-07-20T08:47:19.244Z,46.3
2018-07-20T08:48:09.022Z,46.3
2018-07-20T08:48:59.348Z,46.3
2018-07-20T08:49:49.448Z,46.2
2018-07-20T08:50:39.188Z,46.2
2018-07-20T08:51:28.957Z,46.2
2018-07-20T08:52:19.029Z,46.2
2018-07-20T08:53:09.371Z,46.2
2018-07-20T08:54:00.080Z,46.2
2018-07-20T08:54:49.541Z,46.2
2018-07-20T08:55:39.577Z,46.2
2018-07-20T08:56:29.654Z,46.1
2018-07-20T08:57:19.488Z,46.1
2018-07-20T08:58:09.838Z,46.1
2018-07-20T08:58:59.891Z,46.1
2018-07-20T08:59:50.240Z,46.1
2018-07-20T09:00:40.223Z,46.1
2018-07-20T09:01:30.042Z,46.1
2018-07-20T09:02:20.603Z,46.1
2018-07-20T09:03:10.543Z,46
2018-07-20T09:04:00.214Z,45.9
2018-07-20T09:04:50.565Z,45.9
2018-07-20T09:05:40.321Z,45.8
2018-07-20T09:06:30.146Z,45.8
2018-07-20T09:07:20.231Z,45.8
2018-07-20T09:08:10.770Z,45.8
2018-07-20T09:09:00.875Z,45.8
2018-07-20T09:09:50.930Z,45.8
2018-07-20T09:10:40.705Z,45.8
2018-07-20T09:11:30.895Z,45.8
2018-07-20T09:12:20.855Z,45.9
2018-07-20T09:13:10.920Z,45.9
2018-07-20T09:14:01.090Z,46
2018-07-20T09:14:51.048Z,46.1
2018-07-20T09:15:40.853Z,46.1
2018-07-20T09:16:31.487Z,46.2
2018-07-20T09:17:21.207Z,46.3
2018-07-20T09:18:11.325Z,46.4
2018-07-20T09:19:01.378Z,46.5
2018-07-20T09:19:51.529Z,46.6
2018-07-20T09:20:42.736Z,46.7
2018-07-20T09:21:31.572Z,46.8
2018-07-20T09:22:21.384Z,46.9
2018-07-20T09:23:12.002Z,47
2018-07-20T09:24:01.768Z,47.1
2018-07-20T09:24:51.924Z,47.1
2018-07-20T09:25:41.662Z,47.2
2018-07-20T09:26:32.255Z,47.3
2018-07-20T09:27:22.302Z,47.4
2018-07-20T09:28:12.510Z,47.5
2018-07-20T09:29:01.862Z,47.6
2018-07-20T09:29:52.479Z,47.6
2018-07-20T09:30:41.801Z,47.7
2018-07-20T09:31:32.318Z,47.8
2018-07-20T09:32:22.714Z,47.8
2018-07-20T09:33:12.755Z,47.9
2018-07-20T09:34:03.152Z,47.9
2018-07-20T09:34:52.887Z,47.9
2018-07-20T09:35:42.931Z,48
2018-07-20T09:36:32.699Z,48.1
2018-07-20T09:37:22.798Z,48.1
2018-07-20T09:38:12.573Z,48.2
2018-07-20T09:39:02.921Z,48.3
2018-07-20T09:39:53.025Z,48.3
2018-07-20T09:40:43.313Z,48.4
2018-07-20T09:41:33.084Z,48.5
2018-07-20T09:42:22.875Z,48.6
2018-07-20T09:43:13.526Z,48.7
2018-07-20T09:44:03.839Z,48.7
2018-07-20T09:44:53.600Z,48.8
2018-07-20T09:45:43.706Z,48.9
2018-07-20T09:46:33.750Z,48.9
2018-07-20T09:47:23.560Z,49
2018-07-20T09:48:13.903Z,49.1
2018-07-20T09:49:04.949Z,49.1
2018-07-20T09:49:53.800Z,49.2
2018-07-20T09:50:44.068Z,49.2
2018-07-20T09:51:33.889Z,49.3
2018-07-20T09:52:24.195Z,49.3
2018-07-20T09:53:13.997Z,49.4
2018-07-20T09:54:03.801Z,49.4
2018-07-20T09:54:54.123Z,49.4
2018-07-20T09:55:44.200Z,49.5
2018-07-20T09:56:34.547Z,49.6
2018-07-20T09:57:24.057Z,49.6
2018-07-20T09:58:14.167Z,49.6
2018-07-20T09:59:04.457Z,49.7
2018-07-20T09:59:55.346Z,49.8
2018-07-20T10:00:44.309Z,49.8
2018-07-20T10:01:34.643Z,49.9
2018-07-20T10:02:24.992Z,49.9
2018-07-20T10:03:15.085Z,50
2018-07-20T10:04:04.837Z,50.1
2018-07-20T10:04:55.082Z,50.1
2018-07-20T10:05:45.239Z,50.2
2018-07-20T10:06:34.745Z,50.2
2018-07-20T10:07:25.109Z,50.3
2018-07-20T10:08:15.467Z,50.3
2018-07-20T10:09:05.507Z,50.4
2018-07-20T10:09:55.117Z,50.4
2018-07-20T10:10:45.614Z,50.5
2018-07-20T10:11:35.373Z,50.6
2018-07-20T10:12:25.769Z,50.6
2018-07-20T10:13:15.807Z,50.7
2018-07-20T10:14:05.581Z,50.8
2018-07-20T10:14:56.041Z,50.8
2018-07-20T10:15:45.786Z,50.8
2018-07-20T10:16:36.053Z,50.9
2018-07-20T10:17:26.140Z,50.9
2018-07-20T10:18:15.941Z,51
2018-07-20T10:19:06.982Z,51.1
2018-07-20T10:19:55.794Z,51.1
2018-07-20T10:20:46.397Z,51.2
2018-07-20T10:21:36.449Z,51.3
2018-07-20T10:22:26.509Z,51.3
2018-07-20T10:23:16.289Z,51.4
2018-07-20T10:24:06.355Z,51.4
2018-07-20T10:24:56.697Z,51.5
2018-07-20T10:25:47.573Z,51.6
2018-07-20T10:26:36.812Z,51.7
2018-07-20T10:27:26.924Z,51.8
2018-07-20T10:28:16.983Z,51.8
2018-07-20T10:29:07.029Z,51.9
2018-07-20T10:31:37.204Z,52
2018-07-20T10:32:27.270Z,52.1
2018-07-20T10:33:17.076Z,52.1
2018-07-20T10:34:06.862Z,52.2
2018-07-20T10:34:57.489Z,52.3
2018-07-20T10:35:47.061Z,52.3
2018-07-20T10:37:27.729Z,52.4
2018-07-20T10:38:17.737Z,52.5
2018-07-20T10:39:07.815Z,52.6
2018-07-20T10:39:57.871Z,52.6
2018-07-20T10:40:47.969Z,52.7
2018-07-20T10:41:37.731Z,52.8
2018-07-20T10:42:28.049Z,52.8
2018-07-20T10:43:18.486Z,52.9
2018-07-20T10:44:08.217Z,52.9
2018-07-20T10:44:58.253Z,52.9
2018-07-20T10:45:48.322Z,53
2018-07-20T10:46:37.550Z,53.1
2018-07-20T10:47:27.921Z,53.1
2018-07-20T10:48:18.295Z,53.2
2018-07-20T10:49:08.314Z,53.3
2018-07-20T10:49:58.080Z,53.3
2018-07-20T10:50:48.290Z,53.4
2018-07-20T10:51:38.217Z,53.4
2018-07-20T10:52:28.563Z,53.5
2018-07-20T10:53:18.884Z,53.6
2018-07-20T10:54:09.000Z,53.6
2018-07-20T10:54:58.783Z,53.7
2018-07-20T10:55:49.100Z,53.8
2018-07-20T10:56:38.606Z,53.9
2018-07-20T10:57:29.221Z,53.9
2018-07-20T10:58:19.271Z,53.9
2018-07-20T10:59:09.095Z,54
2018-07-20T10:59:58.568Z,54.1
2018-07-20T11:00:49.502Z,54.1
2018-07-20T11:01:40.303Z,54.2
2018-07-20T11:02:29.591Z,54.3
2018-07-20T11:03:19.108Z,54.3
2018-07-20T11:04:09.716Z,54.3
2018-07-20T11:04:59.212Z,54.4
2018-07-20T11:05:49.591Z,54.4
2018-07-20T11:06:39.906Z,54.5
2018-07-20T11:07:29.720Z,54.6
2018-07-20T11:08:20.053Z,54.6
2018-07-20T11:09:10.091Z,54.6
2018-07-20T11:10:00.181Z,54.7
2018-07-20T11:10:50.250Z,54.8
2018-07-20T11:11:40.372Z,54.8
2018-07-20T11:12:30.417Z,54.8
2018-07-20T11:13:20.427Z,54.9
2018-07-20T11:14:10.259Z,54.9
2018-07-20T11:15:00.302Z,54.9
2018-07-20T11:15:50.407Z,55
2018-07-20T11:16:40.806Z,55
2018-07-20T11:17:30.492Z,55.1
2018-07-20T11:18:20.834Z,55.1
2018-07-20T11:19:10.613Z,55.1
2018-07-20T11:20:00.989Z,55.2
2018-07-20T11:20:50.782Z,55.3
2018-07-20T11:21:41.135Z,55.3